sensor_id;sensor_type;location;lat;lon;timestamp;pressure;altitude;pressure_sealevel;temperature;humidity
7768;BME280;3928;42.626;23.382;2022-09-09T00:01:48;94425.84;;;20.32;84.35
7768;BME280;3928;42.626;23.382;2022-09-09T00:04:26;94422.31;;;20.33;84.69
7768;BME280;3928;42.626;23.382;2022-09-09T00:07:00;94410.13;;;20.34;84.15
7768;BME280;3928;42.626;23.382;2022-09-09T00:09:32;94406.31;;;20.24;84.47
7768;BME280;3928;42.626;23.382;2022-09-09T00:12:10;94283.34;;;19.51;84.39
7768;BME280;3928;42.626;23.382;2022-09-09T00:14:47;94268.81;;;19.29;83.44
7768;BME280;3928;42.626;23.382;2022-09-09T00:17:24;94418.59;;;20.22;82.67
7768;BME280;3928;42.626;23.382;2022-09-09T00:19:58;94440.53;;;20.18;82.45
7768;BME280;3928;42.626;23.382;2022-09-09T00:22:29;94393.75;;;19.81;82.70
7768;BME280;3928;42.626;23.382;2022-09-09T00:25:03;94362.13;;;19.54;83.67
7768;BME280;3928;42.626;23.382;2022-09-09T00:27:41;94405.56;;;19.71;83.94
7768;BME280;3928;42.626;23.382;2022-09-09T00:30:15;94387.31;;;19.54;84.85
7768;BME280;3928;42.626;23.382;2022-09-09T00:32:45;94354.63;;;19.31;85.28
7768;BME280;3928;42.626;23.382;2022-09-09T00:35:22;94390.97;;;19.50;85.71
7768;BME280;3928;42.626;23.382;2022-09-09T00:37:52;94396.19;;;19.50;85.50
7768;BME280;3928;42.626;23.382;2022-09-09T00:40:27;94364.50;;;19.42;85.43
7768;BME280;3928;42.626;23.382;2022-09-09T00:43:13;94374.31;;;19.54;85.11
7768;BME280;3928;42.626;23.382;2022-09-09T00:46:21;94360.97;;;19.43;85.46
7768;BME280;3928;42.626;23.382;2022-09-09T00:49:00;94299.50;;;19.06;85.95
7768;BME280;3928;42.626;23.382;2022-09-09T00:51:42;94366.09;;;19.44;85.53
7768;BME280;3928;42.626;23.382;2022-09-09T00:54:23;94330.91;;;19.20;85.37
7768;BME280;3928;42.626;23.382;2022-09-09T00:57:02;94369.75;;;19.40;84.94
7768;BME280;3928;42.626;23.382;2022-09-09T00:59:36;94358.06;;;19.32;85.33
7768;BME280;3928;42.626;23.382;2022-09-09T01:02:13;94364.50;;;19.42;84.93
7768;BME280;3928;42.626;23.382;2022-09-09T01:04:43;94370.31;;;19.47;85.50
7768;BME280;3928;42.626;23.382;2022-09-09T01:07:17;94375.34;;;19.50;84.82
7768;BME280;3928;42.626;23.382;2022-09-09T01:09:56;94356.69;;;19.42;85.13
7768;BME280;3928;42.626;23.382;2022-09-09T01:12:26;94349.34;;;19.33;85.11
7768;BME280;3928;42.626;23.382;2022-09-09T01:15:01;94383.25;;;19.31;85.87
7768;BME280;3928;42.626;23.382;2022-09-09T01:17:33;94324.81;;;18.85;86.94
7768;BME280;3928;42.626;23.382;2022-09-09T01:20:09;94369.34;;;18.96;88.25
7768;BME280;3928;42.626;23.382;2022-09-09T01:22:44;94361.91;;;18.88;87.90
7768;BME280;3928;42.626;23.382;2022-09-09T01:25:56;94211.94;;;17.80;89.42
7768;BME280;3928;42.626;23.382;2022-09-09T01:28:29;94328.91;;;18.34;90.68
7768;BME280;3928;42.626;23.382;2022-09-09T01:30:59;94345.78;;;18.44;91.41
7768;BME280;3928;42.626;23.382;2022-09-09T01:33:27;94367.47;;;18.62;91.64
7768;BME280;3928;42.626;23.382;2022-09-09T01:35:58;94355.75;;;18.53;91.17
7768;BME280;3928;42.626;23.382;2022-09-09T01:38:29;94364.88;;;18.43;91.43
7768;BME280;3928;42.626;23.382;2022-09-09T01:40:59;94388.06;;;18.48;92.43
7768;BME280;3928;42.626;23.382;2022-09-09T01:43:27;94399.72;;;18.39;93.40
7768;BME280;3928;42.626;23.382;2022-09-09T01:45:56;94396.34;;;18.37;94.30
7768;BME280;3928;42.626;23.382;2022-09-09T01:48:25;94392.00;;;18.37;94.53
7768;BME280;3928;42.626;23.382;2022-09-09T01:50:52;94387.13;;;18.30;94.90
7768;BME280;3928;42.626;23.382;2022-09-09T01:53:21;94394.78;;;18.33;94.59
7768;BME280;3928;42.626;23.382;2022-09-09T01:55:56;94384.03;;;18.22;95.03
7768;BME280;3928;42.626;23.382;2022-09-09T01:58:32;94397.53;;;18.30;95.25
7768;BME280;3928;42.626;23.382;2022-09-09T02:01:06;94386.94;;;18.16;94.81
7768;BME280;3928;42.626;23.382;2022-09-09T02:03:36;94398.97;;;18.37;94.74
7768;BME280;3928;42.626;23.382;2022-09-09T02:06:14;94399.31;;;18.48;94.24
7768;BME280;3928;42.626;23.382;2022-09-09T02:08:48;94392.81;;;18.57;93.86
7768;BME280;3928;42.626;23.382;2022-09-09T02:11:18;94345.41;;;18.33;93.22
7768;BME280;3928;42.626;23.382;2022-09-09T02:13:48;94380.28;;;18.66;93.28
7768;BME280;3928;42.626;23.382;2022-09-09T02:16:19;94348.44;;;18.42;93.29
7768;BME280;3928;42.626;23.382;2022-09-09T02:18:51;94400.22;;;18.85;92.64
7768;BME280;3928;42.626;23.382;2022-09-09T02:21:23;94391.97;;;18.94;91.64
7768;BME280;3928;42.626;23.382;2022-09-09T02:23:57;94381.22;;;19.02;90.47
7768;BME280;3928;42.626;23.382;2022-09-09T02:26:26;94335.22;;;18.85;89.62
7768;BME280;3928;42.626;23.382;2022-09-09T02:28:58;94348.84;;;18.90;89.24
7768;BME280;3928;42.626;23.382;2022-09-09T02:31:29;94381.13;;;19.03;89.27
7768;BME280;3928;42.626;23.382;2022-09-09T02:34:00;94372.16;;;18.91;89.83
7768;BME280;3928;42.626;23.382;2022-09-09T02:36:31;94229.97;;;17.83;90.77
7768;BME280;3928;42.626;23.382;2022-09-09T02:39:02;94375.84;;;18.68;91.90
7768;BME280;3928;42.626;23.382;2022-09-09T02:41:33;94386.47;;;18.64;92.32
7768;BME280;3928;42.626;23.382;2022-09-09T02:44:05;94355.41;;;18.42;93.34
7768;BME280;3928;42.626;23.382;2022-09-09T02:46:39;94382.22;;;18.61;94.01
7768;BME280;3928;42.626;23.382;2022-09-09T02:49:17;94383.16;;;18.60;94.45
7768;BME280;3928;42.626;23.382;2022-09-09T02:51:50;94393.41;;;18.63;93.18
7768;BME280;3928;42.626;23.382;2022-09-09T02:54:26;94403.88;;;18.62;92.88
7768;BME280;3928;42.626;23.382;2022-09-09T02:57:01;94403.38;;;18.54;93.01
7768;BME280;3928;42.626;23.382;2022-09-09T02:59:32;94385.97;;;18.37;94.53
7768;BME280;3928;42.626;23.382;2022-09-09T03:02:00;94389.47;;;18.36;97.13
7768;BME280;3928;42.626;23.382;2022-09-09T03:04:27;94214.53;;;17.22;98.33
7768;BME280;3928;42.626;23.382;2022-09-09T03:06:56;94390.03;;;18.24;99.60
7768;BME280;3928;42.626;23.382;2022-09-09T03:09:23;94331.03;;;17.88;99.67
7768;BME280;3928;42.626;23.382;2022-09-09T03:11:51;94396.97;;;18.23;100.00
7768;BME280;3928;42.626;23.382;2022-09-09T03:14:18;94374.91;;;18.13;100.00
7768;BME280;3928;42.626;23.382;2022-09-09T03:16:47;94370.44;;;18.17;100.00
7768;BME280;3928;42.626;23.382;2022-09-09T03:19:16;94397.38;;;18.33;99.80
7768;BME280;3928;42.626;23.382;2022-09-09T03:21:43;94397.47;;;18.31;100.00
7768;BME280;3928;42.626;23.382;2022-09-09T03:24:11;94384.94;;;18.21;100.00
7768;BME280;3928;42.626;23.382;2022-09-09T03:26:37;94380.47;;;18.24;100.00
7768;BME280;3928;42.626;23.382;2022-09-09T03:29:08;94381.03;;;18.31;100.00
7768;BME280;3928;42.626;23.382;2022-09-09T03:31:35;94390.88;;;18.43;99.56
7768;BME280;3928;42.626;23.382;2022-09-09T03:34:03;94403.28;;;18.55;98.64
7768;BME280;3928;42.626;23.382;2022-09-09T03:36:30;94401.34;;;18.60;98.69
7768;BME280;3928;42.626;23.382;2022-09-09T03:38:58;94397.72;;;18.64;97.73
7768;BME280;3928;42.626;23.382;2022-09-09T03:41:25;94392.84;;;18.76;97.96
7768;BME280;3928;42.626;23.382;2022-09-09T03:43:53;94389.94;;;18.82;97.13
7768;BME280;3928;42.626;23.382;2022-09-09T03:46:21;94392.44;;;18.85;96.38
7768;BME280;3928;42.626;23.382;2022-09-09T03:48:49;94392.44;;;18.85;95.69
7768;BME280;3928;42.626;23.382;2022-09-09T03:51:18;94397.91;;;18.79;95.57
7768;BME280;3928;42.626;23.382;2022-09-09T03:53:45;94391.03;;;18.78;96.50
7768;BME280;3928;42.626;23.382;2022-09-09T03:56:12;94394.38;;;18.80;96.18
7768;BME280;3928;42.626;23.382;2022-09-09T03:58:39;94396.78;;;18.84;96.39
7768;BME280;3928;42.626;23.382;2022-09-09T04:01:08;94363.19;;;18.61;95.93
7768;BME280;3928;42.626;23.382;2022-09-09T04:03:35;94400.84;;;18.90;95.83
7768;BME280;3928;42.626;23.382;2022-09-09T04:06:03;94398.09;;;18.93;95.26
7768;BME280;3928;42.626;23.382;2022-09-09T04:08:33;94405.84;;;18.94;95.03
7768;BME280;3928;42.626;23.382;2022-09-09T04:11:01;94416.03;;;18.99;94.88
7768;BME280;3928;42.626;23.382;2022-09-09T04:13:30;94408.97;;;19.01;94.45
7768;BME280;3928;42.626;23.382;2022-09-09T04:15:59;94380.19;;;18.87;94.72
7768;BME280;3928;42.626;23.382;2022-09-09T04:18:27;94387.75;;;18.91;94.26
7768;BME280;3928;42.626;23.382;2022-09-09T04:20:55;94403.50;;;19.07;93.74
7768;BME280;3928;42.626;23.382;2022-09-09T04:23:23;94410.38;;;19.08;93.86
7768;BME280;3928;42.626;23.382;2022-09-09T04:25:53;94398.66;;;18.99;93.12
7768;BME280;3928;42.626;23.382;2022-09-09T04:28:22;94341.69;;;18.57;93.42
7768;BME280;3928;42.626;23.382;2022-09-09T04:30:49;94392.72;;;18.79;92.68
7768;BME280;3928;42.626;23.382;2022-09-09T04:33:18;94392.72;;;18.79;93.07
7768;BME280;3928;42.626;23.382;2022-09-09T04:35:46;94360.66;;;18.22;93.49
7768;BME280;3928;42.626;23.382;2022-09-09T04:38:14;94403.09;;;18.41;94.04
7768;BME280;3928;42.626;23.382;2022-09-09T04:40:43;94375.00;;;18.11;95.08
7768;BME280;3928;42.626;23.382;2022-09-09T04:43:12;94408.25;;;18.22;95.24
7768;BME280;3928;42.626;23.382;2022-09-09T04:45:40;94413.16;;;18.09;95.67
7768;BME280;3928;42.626;23.382;2022-09-09T04:48:07;94415.25;;;18.01;96.32
7768;BME280;3928;42.626;23.382;2022-09-09T04:50:35;94416.94;;;18.02;96.71
7768;BME280;3928;42.626;23.382;2022-09-09T04:53:02;94381.38;;;17.84;96.89
7768;BME280;3928;42.626;23.382;2022-09-09T04:55:30;94373.09;;;17.76;96.86
7768;BME280;3928;42.626;23.382;2022-09-09T04:57:58;94387.72;;;17.97;96.90
7768;BME280;3928;42.626;23.382;2022-09-09T05:00:30;94358.31;;;17.78;97.04
7768;BME280;3928;42.626;23.382;2022-09-09T05:05:31;94382.72;;;18.32;95.50
7768;BME280;3928;42.626;23.382;2022-09-09T05:08:01;94392.34;;;18.30;94.98
7768;BME280;3928;42.626;23.382;2022-09-09T05:10:28;94370.09;;;18.24;94.95
7768;BME280;3928;42.626;23.382;2022-09-09T05:12:55;94376.13;;;18.25;94.71
7768;BME280;3928;42.626;23.382;2022-09-09T05:15:22;94383.56;;;18.51;95.21
7768;BME280;3928;42.626;23.382;2022-09-09T05:17:50;94374.81;;;18.73;93.51
7768;BME280;3928;42.626;23.382;2022-09-09T05:20:18;94379.09;;;18.74;91.98
7768;BME280;3928;42.626;23.382;2022-09-09T05:22:45;94388.28;;;18.81;91.87
7768;BME280;3928;42.626;23.382;2022-09-09T05:25:12;94381.72;;;18.91;91.08
7768;BME280;3928;42.626;23.382;2022-09-09T05:27:39;94380.00;;;19.09;92.06
7768;BME280;3928;42.626;23.382;2022-09-09T05:30:07;94367.41;;;19.36;90.36
7768;BME280;3928;42.626;23.382;2022-09-09T05:32:34;94368.38;;;19.50;87.70
7768;BME280;3928;42.626;23.382;2022-09-09T05:35:03;94368.06;;;19.58;86.34
7768;BME280;3928;42.626;23.382;2022-09-09T05:37:30;94363.44;;;19.63;86.04
7768;BME280;3928;42.626;23.382;2022-09-09T05:39:57;94360.63;;;19.68;85.09
7768;BME280;3928;42.626;23.382;2022-09-09T05:42:24;94374.28;;;19.89;84.47
7768;BME280;3928;42.626;23.382;2022-09-09T05:44:51;94361.47;;;20.01;83.30
7768;BME280;3928;42.626;23.382;2022-09-09T05:47:19;94368.22;;;20.21;82.90
7768;BME280;3928;42.626;23.382;2022-09-09T05:49:46;94375.53;;;20.48;81.01
7768;BME280;3928;42.626;23.382;2022-09-09T05:52:14;94323.13;;;20.36;79.90
7768;BME280;3928;42.626;23.382;2022-09-09T05:54:41;94381.00;;;20.90;78.85
7768;BME280;3928;42.626;23.382;2022-09-09T05:57:09;94383.75;;;21.19;77.97
7768;BME280;3928;42.626;23.382;2022-09-09T05:59:36;94378.50;;;21.50;77.51
7768;BME280;3928;42.626;23.382;2022-09-09T06:02:03;94382.94;;;21.78;75.65
7768;BME280;3928;42.626;23.382;2022-09-09T06:04:30;94383.09;;;22.05;74.56
7768;BME280;3928;42.626;23.382;2022-09-09T06:06:57;94390.41;;;22.14;69.17
7768;BME280;3928;42.626;23.382;2022-09-09T06:09:25;94400.59;;;22.19;69.16
7768;BME280;3928;42.626;23.382;2022-09-09T06:11:52;94407.19;;;22.25;69.75
7768;BME280;3928;42.626;23.382;2022-09-09T06:14:19;94402.06;;;22.37;69.23
7768;BME280;3928;42.626;23.382;2022-09-09T06:16:47;94398.34;;;22.41;67.84
7768;BME280;3928;42.626;23.382;2022-09-09T06:19:14;94384.44;;;22.41;67.79
7768;BME280;3928;42.626;23.382;2022-09-09T06:21:40;94401.78;;;22.70;68.10
7768;BME280;3928;42.626;23.382;2022-09-09T06:24:09;94395.31;;;22.90;66.53
7768;BME280;3928;42.626;23.382;2022-09-09T06:26:40;94405.47;;;23.09;65.54
7768;BME280;3928;42.626;23.382;2022-09-09T06:29:09;94411.41;;;23.25;64.92
7768;BME280;3928;42.626;23.382;2022-09-09T06:31:37;94323.63;;;22.93;64.58
7768;BME280;3928;42.626;23.382;2022-09-09T06:34:06;94398.34;;;23.65;64.93
7768;BME280;3928;42.626;23.382;2022-09-09T06:36:34;94397.88;;;23.85;62.87
7768;BME280;3928;42.626;23.382;2022-09-09T06:39:04;94399.47;;;24.01;61.23
7768;BME280;3928;42.626;23.382;2022-09-09T06:41:32;94397.78;;;24.12;60.60
7768;BME280;3928;42.626;23.382;2022-09-09T06:44:01;94391.69;;;24.25;59.78
7768;BME280;3928;42.626;23.382;2022-09-09T06:46:30;94393.22;;;24.41;60.08
7768;BME280;3928;42.626;23.382;2022-09-09T06:48:58;94387.13;;;24.54;60.22
7768;BME280;3928;42.626;23.382;2022-09-09T06:51:27;94393.78;;;24.70;58.12
7768;BME280;3928;42.626;23.382;2022-09-09T06:53:58;94401.75;;;24.82;57.78
7768;BME280;3928;42.626;23.382;2022-09-09T06:56:26;94404.03;;;24.99;56.19
7768;BME280;3928;42.626;23.382;2022-09-09T06:58:55;94402.34;;;25.11;57.52
7768;BME280;3928;42.626;23.382;2022-09-09T07:01:27;94408.78;;;25.30;55.59
7768;BME280;3928;42.626;23.382;2022-09-09T07:03:56;94407.03;;;25.42;54.66
7768;BME280;3928;42.626;23.382;2022-09-09T07:06:25;94394.41;;;25.47;54.12
7768;BME280;3928;42.626;23.382;2022-09-09T07:08:54;94403.78;;;25.62;52.91
7768;BME280;3928;42.626;23.382;2022-09-09T07:11:22;94416.66;;;25.78;52.47
7768;BME280;3928;42.626;23.382;2022-09-09T07:13:49;94409.16;;;25.85;52.03
7768;BME280;3928;42.626;23.382;2022-09-09T07:16:18;94399.38;;;25.87;52.55
7768;BME280;3928;42.626;23.382;2022-09-09T07:18:47;94391.88;;;25.93;52.22
7768;BME280;3928;42.626;23.382;2022-09-09T07:21:15;94403.03;;;26.08;52.32
7768;BME280;3928;42.626;23.382;2022-09-09T07:23:43;94399.91;;;26.14;51.40
7768;BME280;3928;42.626;23.382;2022-09-09T07:26:10;94412.13;;;26.27;51.04
7768;BME280;3928;42.626;23.382;2022-09-09T07:28:37;94404.28;;;26.38;50.88
7768;BME280;3928;42.626;23.382;2022-09-09T07:31:05;94402.38;;;26.51;49.99
7768;BME280;3928;42.626;23.382;2022-09-09T07:33:34;94396.91;;;26.65;49.61
7768;BME280;3928;42.626;23.382;2022-09-09T07:36:08;94401.09;;;26.79;48.37
7768;BME280;3928;42.626;23.382;2022-09-09T07:38:38;94392.56;;;26.87;47.42
7768;BME280;3928;42.626;23.382;2022-09-09T07:41:07;94352.72;;;26.69;47.32
7768;BME280;3928;42.626;23.382;2022-09-09T07:43:37;94401.94;;;27.02;47.36
7768;BME280;3928;42.626;23.382;2022-09-09T07:46:05;94396.16;;;27.08;47.25
7768;BME280;3928;42.626;23.382;2022-09-09T07:48:32;94409.66;;;27.26;47.48
7768;BME280;3928;42.626;23.382;2022-09-09T07:51:10;94406.63;;;27.42;47.38
7768;BME280;3928;42.626;23.382;2022-09-09T07:53:37;94408.50;;;27.62;47.24
7768;BME280;3928;42.626;23.382;2022-09-09T07:56:07;94409.31;;;27.74;45.04
7768;BME280;3928;42.626;23.382;2022-09-09T07:58:34;94401.94;;;27.88;45.50
7768;BME280;3928;42.626;23.382;2022-09-09T08:01:07;94358.94;;;27.77;44.38
7768;BME280;3928;42.626;23.382;2022-09-09T08:03:34;94402.44;;;28.24;44.84
7768;BME280;3928;42.626;23.382;2022-09-09T08:06:02;94391.22;;;28.43;43.86
7768;BME280;3928;42.626;23.382;2022-09-09T08:08:31;94401.09;;;28.50;42.43
7768;BME280;3928;42.626;23.382;2022-09-09T08:11:02;94403.66;;;28.62;42.85
7768;BME280;3928;42.626;23.382;2022-09-09T08:13:30;94403.28;;;28.66;41.77
7768;BME280;3928;42.626;23.382;2022-09-09T08:16:04;94401.03;;;28.20;41.75
7768;BME280;3928;42.626;23.382;2022-09-09T08:18:32;94401.75;;;28.01;43.60
7768;BME280;3928;42.626;23.382;2022-09-09T08:21:05;94399.50;;;27.96;44.34
7768;BME280;3928;42.626;23.382;2022-09-09T08:23:33;94400.91;;;28.01;44.56
7768;BME280;3928;42.626;23.382;2022-09-09T08:26:06;94398.84;;;28.04;44.17
7768;BME280;3928;42.626;23.382;2022-09-09T08:28:36;94397.25;;;28.13;44.01
7768;BME280;3928;42.626;23.382;2022-09-09T08:31:13;94396.19;;;28.25;43.98
7768;BME280;3928;42.626;23.382;2022-09-09T08:33:42;94392.81;;;28.34;43.98
7768;BME280;3928;42.626;23.382;2022-09-09T08:36:12;94393.25;;;28.39;42.30
7768;BME280;3928;42.626;23.382;2022-09-09T08:38:42;94403.41;;;28.23;41.94
7768;BME280;3928;42.626;23.382;2022-09-09T08:41:30;94385.97;;;28.11;42.86
7768;BME280;3928;42.626;23.382;2022-09-09T08:44:03;94399.38;;;28.19;44.18
7768;BME280;3928;42.626;23.382;2022-09-09T08:46:39;94398.53;;;28.18;43.49
7768;BME280;3928;42.626;23.382;2022-09-09T08:49:19;94391.69;;;28.16;44.58
7768;BME280;3928;42.626;23.382;2022-09-09T08:51:54;94392.94;;;28.12;43.75
7768;BME280;3928;42.626;23.382;2022-09-09T08:54:30;94380.91;;;27.98;43.34
7768;BME280;3928;42.626;23.382;2022-09-09T08:57:00;94385.22;;;27.99;43.05
7768;BME280;3928;42.626;23.382;2022-09-09T08:59:27;94384.75;;;27.94;44.21
7768;BME280;3928;42.626;23.382;2022-09-09T09:02:03;94381.41;;;27.92;44.17
7768;BME280;3928;42.626;23.382;2022-09-09T09:04:49;94388.94;;;27.96;43.54
7768;BME280;3928;42.626;23.382;2022-09-09T09:07:28;94391.66;;;28.06;43.56
7768;BME280;3928;42.626;23.382;2022-09-09T09:10:02;94388.63;;;28.11;43.94
7768;BME280;3928;42.626;23.382;2022-09-09T09:12:36;94380.00;;;28.09;43.73
7768;BME280;3928;42.626;23.382;2022-09-09T09:15:11;94388.09;;;28.17;43.46
7768;BME280;3928;42.626;23.382;2022-09-09T09:17:41;94391.91;;;28.24;42.92
7768;BME280;3928;42.626;23.382;2022-09-09T09:20:12;94388.78;;;28.30;43.03
7768;BME280;3928;42.626;23.382;2022-09-09T09:22:47;94384.50;;;28.39;42.75
7768;BME280;3928;42.626;23.382;2022-09-09T09:25:18;94370.03;;;28.33;43.19
7768;BME280;3928;42.626;23.382;2022-09-09T09:27:52;94377.88;;;28.44;42.62
7768;BME280;3928;42.626;23.382;2022-09-09T09:30:24;94377.34;;;28.50;43.10
7768;BME280;3928;42.626;23.382;2022-09-09T09:32:55;94371.81;;;28.53;41.80
7768;BME280;3928;42.626;23.382;2022-09-09T09:35:23;94383.44;;;28.51;41.13
7768;BME280;3928;42.626;23.382;2022-09-09T09:37:50;94380.88;;;28.40;41.53
7768;BME280;3928;42.626;23.382;2022-09-09T09:40:21;94380.31;;;28.36;42.96
7768;BME280;3928;42.626;23.382;2022-09-09T09:42:51;94371.72;;;28.34;43.72
7768;BME280;3928;42.626;23.382;2022-09-09T09:45:27;94376.50;;;28.50;43.82
7768;BME280;3928;42.626;23.382;2022-09-09T09:48:03;94377.94;;;28.64;42.75
7768;BME280;3928;42.626;23.382;2022-09-09T09:50:32;94367.47;;;28.83;42.27
7768;BME280;3928;42.626;23.382;2022-09-09T09:53:03;94364.47;;;28.97;40.14
7768;BME280;3928;42.626;23.382;2022-09-09T09:55:34;94347.22;;;28.93;42.03
7768;BME280;3928;42.626;23.382;2022-09-09T09:58:03;94358.97;;;29.20;40.91
7768;BME280;3928;42.626;23.382;2022-09-09T10:00:32;94342.13;;;29.21;40.79
7768;BME280;3928;42.626;23.382;2022-09-09T10:03:00;94351.22;;;29.37;40.17
7768;BME280;3928;42.626;23.382;2022-09-09T10:05:29;94351.81;;;29.51;41.33
7768;BME280;3928;42.626;23.382;2022-09-09T10:08:10;94188.09;;;28.61;40.30
7768;BME280;3928;42.626;23.382;2022-09-09T10:13:38;94358.75;;;29.71;41.23
7768;BME280;3928;42.626;23.382;2022-09-09T10:16:15;94359.88;;;29.68;41.18
7768;BME280;3928;42.626;23.382;2022-09-09T10:18:58;94360.28;;;29.54;40.97
7768;BME280;3928;42.626;23.382;2022-09-09T10:21:44;94360.69;;;29.40;39.55
7768;BME280;3928;42.626;23.382;2022-09-09T10:24:34;94354.19;;;28.94;40.26
7768;BME280;3928;42.626;23.382;2022-09-09T10:27:15;94371.34;;;28.48;41.64
7768;BME280;3928;42.626;23.382;2022-09-09T10:30:00;94364.88;;;28.11;42.93
7768;BME280;3928;42.626;23.382;2022-09-09T10:32:38;94366.41;;;27.92;43.34
7768;BME280;3928;42.626;23.382;2022-09-09T10:35:12;94367.44;;;27.80;44.19
7768;BME280;3928;42.626;23.382;2022-09-09T10:37:49;94371.56;;;27.73;43.96
7768;BME280;3928;42.626;23.382;2022-09-09T10:40:28;94365.69;;;27.58;44.88
7768;BME280;3928;42.626;23.382;2022-09-09T10:43:07;94370.25;;;27.56;45.15
7768;BME280;3928;42.626;23.382;2022-09-09T10:45:41;94369.44;;;27.56;46.51
7768;BME280;3928;42.626;23.382;2022-09-09T10:48:30;94367.50;;;27.58;46.66
7768;BME280;3928;42.626;23.382;2022-09-09T10:51:10;94373.50;;;27.60;46.11
7768;BME280;3928;42.626;23.382;2022-09-09T10:53:48;94362.34;;;27.35;45.26
7768;BME280;3928;42.626;23.382;2022-09-09T10:56:20;94379.13;;;27.23;45.70
7768;BME280;3928;42.626;23.382;2022-09-09T10:58:53;94364.25;;;27.22;47.08
7768;BME280;3928;42.626;23.382;2022-09-09T11:01:25;94351.97;;;27.00;46.47
7768;BME280;3928;42.626;23.382;2022-09-09T11:04:00;94361.59;;;27.01;46.45
7768;BME280;3928;42.626;23.382;2022-09-09T11:06:32;94357.38;;;26.88;47.08
7768;BME280;3928;42.626;23.382;2022-09-09T11:09:02;94378.22;;;26.91;47.71
7768;BME280;3928;42.626;23.382;2022-09-09T11:11:34;94371.28;;;26.90;48.61
7768;BME280;3928;42.626;23.382;2022-09-09T11:14:12;94387.78;;;26.92;48.08
7768;BME280;3928;42.626;23.382;2022-09-09T11:16:45;94361.22;;;26.84;48.41
7768;BME280;3928;42.626;23.382;2022-09-09T11:19:21;94379.88;;;26.92;48.41
7768;BME280;3928;42.626;23.382;2022-09-09T11:21:52;94372.69;;;26.94;49.00
7768;BME280;3928;42.626;23.382;2022-09-09T11:24:24;94361.19;;;26.95;48.03
7768;BME280;3928;42.626;23.382;2022-09-09T11:26:57;94360.22;;;26.96;47.45
7768;BME280;3928;42.626;23.382;2022-09-09T11:29:50;94356.88;;;26.94;47.76
7768;BME280;3928;42.626;23.382;2022-09-09T11:32:33;94346.09;;;26.97;49.50
7768;BME280;3928;42.626;23.382;2022-09-09T11:35:19;94350.66;;;27.06;50.32
7768;BME280;3928;42.626;23.382;2022-09-09T11:40:54;94322.50;;;27.18;50.34
7768;BME280;3928;42.626;23.382;2022-09-09T11:43:27;94324.75;;;27.22;50.30
7768;BME280;3928;42.626;23.382;2022-09-09T11:45:58;94318.19;;;27.17;48.74
7768;BME280;3928;42.626;23.382;2022-09-09T11:48:29;94322.13;;;27.11;47.15
7768;BME280;3928;42.626;23.382;2022-09-09T11:51:01;94297.97;;;27.06;48.19
7768;BME280;3928;42.626;23.382;2022-09-09T11:53:29;94303.47;;;27.14;49.98
7768;BME280;3928;42.626;23.382;2022-09-09T11:56:09;94280.84;;;27.12;50.23
7768;BME280;3928;42.626;23.382;2022-09-09T11:58:57;94279.84;;;27.24;49.75
7768;BME280;3928;42.626;23.382;2022-09-09T12:01:35;94265.84;;;27.23;50.30
7768;BME280;3928;42.626;23.382;2022-09-09T12:04:16;94278.56;;;27.39;49.23
7768;BME280;3928;42.626;23.382;2022-09-09T12:06:45;94269.97;;;27.37;50.97
7768;BME280;3928;42.626;23.382;2022-09-09T12:09:20;94297.94;;;27.49;49.09
7768;BME280;3928;42.626;23.382;2022-09-09T12:11:49;94284.75;;;27.49;49.21
7768;BME280;3928;42.626;23.382;2022-09-09T12:14:34;94293.66;;;27.58;49.33
7768;BME280;3928;42.626;23.382;2022-09-09T12:17:10;94288.03;;;27.62;48.29
7768;BME280;3928;42.626;23.382;2022-09-09T12:19:45;94277.63;;;27.61;48.73
7768;BME280;3928;42.626;23.382;2022-09-09T12:22:19;94276.66;;;27.62;49.04
7768;BME280;3928;42.626;23.382;2022-09-09T12:24:56;94280.47;;;27.69;49.03
7768;BME280;3928;42.626;23.382;2022-09-09T12:27:30;94270.50;;;27.73;48.27
7768;BME280;3928;42.626;23.382;2022-09-09T12:30:04;94268.88;;;27.81;49.01
7768;BME280;3928;42.626;23.382;2022-09-09T12:32:32;94247.78;;;27.81;49.83
7768;BME280;3928;42.626;23.382;2022-09-09T12:35:00;94258.50;;;27.89;47.31
7768;BME280;3928;42.626;23.382;2022-09-09T12:37:34;94253.44;;;27.98;49.29
7768;BME280;3928;42.626;23.382;2022-09-09T12:40:03;94248.16;;;27.98;50.01
7768;BME280;3928;42.626;23.382;2022-09-09T12:42:31;94241.25;;;28.06;48.02
7768;BME280;3928;42.626;23.382;2022-09-09T12:45:02;94236.81;;;28.07;48.80
7768;BME280;3928;42.626;23.382;2022-09-09T12:47:38;94251.53;;;28.09;46.79
7768;BME280;3928;42.626;23.382;2022-09-09T12:50:15;94244.28;;;28.02;46.53
7768;BME280;3928;42.626;23.382;2022-09-09T12:52:43;94244.00;;;28.05;47.57
7768;BME280;3928;42.626;23.382;2022-09-09T12:55:16;94252.38;;;28.10;47.73
7768;BME280;3928;42.626;23.382;2022-09-09T12:57:44;94250.25;;;28.04;46.21
7768;BME280;3928;42.626;23.382;2022-09-09T13:00:16;94229.00;;;28.05;48.68
7768;BME280;3928;42.626;23.382;2022-09-09T13:02:49;94237.44;;;28.20;49.07
7768;BME280;3928;42.626;23.382;2022-09-09T13:05:19;94232.22;;;28.39;48.66
7768;BME280;3928;42.626;23.382;2022-09-09T13:07:46;94221.03;;;28.57;45.77
7768;BME280;3928;42.626;23.382;2022-09-09T13:10:15;94226.75;;;28.71;47.90
7768;BME280;3928;42.626;23.382;2022-09-09T13:12:45;94219.88;;;28.90;44.73
7768;BME280;3928;42.626;23.382;2022-09-09T13:15:20;94214.84;;;28.96;45.72
7768;BME280;3928;42.626;23.382;2022-09-09T13:17:55;94220.13;;;29.06;45.55
7768;BME280;3928;42.626;23.382;2022-09-09T13:20:24;94219.16;;;29.17;46.33
7768;BME280;3928;42.626;23.382;2022-09-09T13:22:52;94220.16;;;29.25;46.00
7768;BME280;3928;42.626;23.382;2022-09-09T13:25:24;94228.34;;;29.32;44.63
7768;BME280;3928;42.626;23.382;2022-09-09T13:27:56;94209.53;;;29.35;45.20
7768;BME280;3928;42.626;23.382;2022-09-09T13:30:27;94210.50;;;29.44;45.38
7768;BME280;3928;42.626;23.382;2022-09-09T13:33:06;94203.56;;;29.52;45.65
7768;BME280;3928;42.626;23.382;2022-09-09T13:35:47;94204.66;;;29.59;44.81
7768;BME280;3928;42.626;23.382;2022-09-09T13:38:16;94204.50;;;29.70;44.37
7768;BME280;3928;42.626;23.382;2022-09-09T13:40:53;94199.50;;;29.67;43.58
7768;BME280;3928;42.626;23.382;2022-09-09T13:43:24;94206.06;;;29.63;43.18